Time;durP1;ratioP1;P1;durP2;ratioP2;P2;SDS_P1;SDS_P2;PMS_P1;PMS_P2;Temp;Humidity;BMP_temperature;BMP_pressure;BME280_temperature;BME280_humidity;BME280_pressure;Samples;Min_cycle;Max_cycle;Signal;HPM_P1;HPM_P2
2022/10/22 00:00:06;;;;;;;4.45;2.25;;;17.30;99.90;;;;;;937221;148;28885;-79
2022/10/22 00:02:33;;;;;;;2.65;1.80;;;17.30;99.90;;;;;;933759;148;28224;-79
2022/10/22 00:04:59;;;;;;;3.87;1.70;;;17.30;99.90;;;;;;934637;148;27306;-79
2022/10/22 00:07:26;;;;;;;3.47;1.60;;;17.30;99.90;;;;;;936356;148;27343;-79
2022/10/22 00:09:52;;;;;;;5.05;2.05;;;17.30;99.90;;;;;;935736;148;27333;-80
2022/10/22 00:12:19;;;;;;;3.05;1.57;;;17.30;99.90;;;;;;935306;148;27371;-79
2022/10/22 00:14:46;;;;;;;2.33;1.60;;;17.30;99.90;;;;;;932813;148;27354;-79
2022/10/22 00:17:12;;;;;;;1.75;1.65;;;17.30;99.90;;;;;;935862;148;27358;-79
2022/10/22 00:19:39;;;;;;;4.45;2.00;;;17.30;99.90;;;;;;937041;148;27391;-79
2022/10/22 00:22:05;;;;;;;2.05;1.60;;;17.30;99.90;;;;;;933085;148;27436;-79
2022/10/22 00:24:32;;;;;;;2.77;2.00;;;17.30;99.90;;;;;;934443;148;27356;-79
2022/10/22 00:26:58;;;;;;;1.70;1.57;;;17.30;99.90;;;;;;933393;148;27307;-79
2022/10/22 00:29:25;;;;;;;2.87;2.08;;;17.30;99.90;;;;;;934571;148;27318;-79
2022/10/22 00:31:52;;;;;;;1.87;1.77;;;17.30;99.90;;;;;;933515;148;27280;-79
2022/10/22 00:34:20;;;;;;;5.30;2.35;;;17.40;99.90;;;;;;933188;148;27428;-79
2022/10/22 00:36:45;;;;;;;2.80;2.00;;;17.40;99.90;;;;;;934869;148;27428;-79
2022/10/22 00:39:14;;;;;;;2.12;1.70;;;17.40;99.90;;;;;;935232;148;27933;-79
2022/10/22 00:41:38;;;;;;;2.27;1.80;;;17.40;99.90;;;;;;932343;148;27269;-79
2022/10/22 00:44:05;;;;;;;3.52;1.70;;;17.40;99.90;;;;;;934420;148;27401;-79
2022/10/22 00:46:31;;;;;;;3.62;2.00;;;17.40;99.90;;;;;;936491;148;27339;-79
2022/10/22 00:48:58;;;;;;;1.80;1.70;;;17.40;99.90;;;;;;934403;148;27378;-79
2022/10/22 00:51:24;;;;;;;4.62;2.47;;;17.50;99.90;;;;;;934684;148;27751;-79
2022/10/22 00:53:52;;;;;;;3.90;1.90;;;17.50;99.90;;;;;;934572;148;27501;-80
2022/10/22 00:56:18;;;;;;;2.30;2.00;;;17.50;99.90;;;;;;934446;147;27328;-79
2022/10/22 00:58:44;;;;;;;2.85;1.90;;;17.50;99.90;;;;;;936910;148;27337;-79
2022/10/22 01:01:11;;;;;;;5.78;2.37;;;17.50;99.90;;;;;;934458;148;27451;-79
2022/10/22 01:03:37;;;;;;;2.87;1.72;;;17.50;99.90;;;;;;935711;148;27793;-79
2022/10/22 01:06:04;;;;;;;3.92;2.12;;;17.50;99.90;;;;;;935869;148;27452;-79
2022/10/22 01:08:46;;;;;;;3.45;2.10;;;17.50;99.90;;;;;;934893;148;27356;-79
2022/10/22 01:11:15;;;;;;;1.90;1.70;;;17.50;99.90;;;;;;932745;148;27429;-79
2022/10/22 01:13:42;;;;;;;2.37;1.72;;;17.50;99.90;;;;;;932577;148;27346;-79
2022/10/22 01:16:08;;;;;;;4.25;2.10;;;17.50;99.90;;;;;;934619;148;27340;-80
2022/10/22 01:18:56;;;;;;;1.85;1.67;;;17.50;99.90;;;;;;934174;148;27345;-80
2022/10/22 01:21:31;;;;;;;5.08;2.37;;;17.50;99.90;;;;;;935650;148;27342;-79
2022/10/22 01:24:07;;;;;;;2.33;1.90;;;17.50;99.90;;;;;;935442;151;27770;-78
2022/10/22 01:26:36;;;;;;;1.75;1.65;;;17.40;99.90;;;;;;935551;148;27429;-78
2022/10/22 01:29:18;;;;;;;4.83;1.85;;;17.40;99.90;;;;;;934675;151;27397;-78
2022/10/22 01:31:50;;;;;;;5.20;1.92;;;17.40;99.90;;;;;;935431;148;27457;-79
2022/10/22 01:34:17;;;;;;;1.87;1.30;;;17.30;99.90;;;;;;937662;148;27380;-78
2022/10/22 01:36:44;;;;;;;1.37;1.05;;;17.30;99.90;;;;;;936334;148;27339;-78
2022/10/22 01:39:10;;;;;;;3.00;1.10;;;17.20;99.90;;;;;;935982;151;27774;-78
2022/10/22 01:41:37;;;;;;;3.72;1.95;;;17.20;99.90;;;;;;935616;151;27353;-78
2022/10/22 01:44:03;;;;;;;1.65;1.25;;;17.20;99.90;;;;;;935435;151;27562;-78
2022/10/22 01:46:30;;;;;;;3.72;1.50;;;17.10;99.90;;;;;;935572;148;27345;-79
2022/10/22 01:49:24;;;;;;;1.35;1.20;;;17.10;99.90;;;;;;935352;148;27724;-78
2022/10/22 01:52:03;;;;;;;1.15;1.12;;;17.10;99.90;;;;;;934022;149;27762;-79
2022/10/22 01:54:35;;;;;;;3.12;1.37;;;17.10;99.90;;;;;;933482;148;27346;-78
2022/10/22 01:57:22;;;;;;;3.05;1.75;;;17.10;99.90;;;;;;933028;151;27355;-79
2022/10/22 02:00:01;;;;;;;1.25;1.15;;;17.10;99.90;;;;;;934397;151;27419;-78
2022/10/22 02:02:46;;;;;;;1.55;1.22;;;17.10;99.90;;;;;;935538;151;27397;-78
2022/10/22 02:05:13;;;;;;;2.05;1.20;;;17.00;99.90;;;;;;937710;151;27238;-78
2022/10/22 02:07:39;;;;;;;1.05;1.00;;;17.00;99.90;;;;;;934162;151;27409;-79
2022/10/22 02:10:06;;;;;;;1.00;0.90;;;17.00;99.90;;;;;;935844;151;27502;-78
2022/10/22 02:12:32;;;;;;;0.85;0.85;;;17.00;99.90;;;;;;935703;151;27562;-78
2022/10/22 02:14:59;;;;;;;1.07;0.98;;;17.00;99.90;;;;;;935154;148;27334;-78
2022/10/22 02:17:26;;;;;;;1.07;0.85;;;17.00;99.90;;;;;;934583;151;27448;-78
2022/10/22 02:19:52;;;;;;;2.65;2.20;;;17.00;99.90;;;;;;935820;151;27293;-78
2022/10/22 02:22:19;;;;;;;1.55;1.00;;;17.00;99.90;;;;;;933206;148;27360;-79
2022/10/22 02:24:45;;;;;;;2.40;1.05;;;17.10;99.90;;;;;;927953;150;27468;-78
2022/10/22 02:27:24;;;;;;;1.12;1.02;;;17.10;99.90;;;;;;936991;148;27791;-78
2022/10/22 02:29:53;;;;;;;0.70;0.68;;;17.10;99.90;;;;;;936161;148;27428;-78
2022/10/22 02:32:20;;;;;;;1.05;1.00;;;17.20;99.90;;;;;;932721;148;27440;-78
2022/10/22 02:34:46;;;;;;;1.15;1.00;;;17.20;99.90;;;;;;933627;148;27364;-78
2022/10/22 02:37:13;;;;;;;1.00;0.98;;;17.20;99.90;;;;;;933424;148;27438;-78
2022/10/22 02:39:40;;;;;;;2.72;1.00;;;17.20;99.90;;;;;;934775;148;27446;-78
2022/10/22 02:42:06;;;;;;;1.80;0.88;;;17.20;99.90;;;;;;933904;148;27399;-78
2022/10/22 02:44:33;;;;;;;1.02;0.78;;;17.20;99.90;;;;;;934898;148;27484;-79
2022/10/22 02:46:59;;;;;;;1.47;0.70;;;17.30;99.90;;;;;;933707;148;27319;-78
2022/10/22 02:49:26;;;;;;;0.85;0.85;;;17.30;99.90;;;;;;934797;148;27472;-78
2022/10/22 02:51:53;;;;;;;0.90;0.85;;;17.30;99.90;;;;;;933502;148;27440;-79
2022/10/22 02:54:19;;;;;;;0.72;0.72;;;17.40;99.90;;;;;;935343;148;27284;-79
2022/10/22 02:56:46;;;;;;;2.10;1.00;;;17.40;99.90;;;;;;934283;148;27410;-79
2022/10/22 02:59:17;;;;;;;2.08;1.12;;;17.40;99.90;;;;;;934968;148;27944;-78
2022/10/22 03:01:43;;;;;;;1.95;0.95;;;17.40;99.90;;;;;;933470;148;27363;-79
2022/10/22 03:04:10;;;;;;;0.70;0.70;;;17.50;99.90;;;;;;934354;148;27338;-78
2022/10/22 03:06:37;;;;;;;0.55;0.55;;;17.50;99.90;;;;;;934091;148;27313;-79
2022/10/22 03:09:03;;;;;;;1.75;1.05;;;17.50;99.90;;;;;;935198;148;27392;-79
2022/10/22 03:11:30;;;;;;;0.85;0.65;;;17.50;99.90;;;;;;934483;148;27878;-79
2022/10/22 03:13:56;;;;;;;0.75;0.75;;;17.50;99.90;;;;;;933724;148;27354;-79
2022/10/22 03:16:23;;;;;;;2.35;0.90;;;17.50;99.90;;;;;;935139;148;27299;-78
2022/10/22 03:18:50;;;;;;;1.02;0.93;;;17.50;99.90;;;;;;934635;148;27320;-79
2022/10/22 03:21:19;;;;;;;0.80;0.80;;;17.50;99.90;;;;;;933826;148;27302;-78
2022/10/22 03:23:45;;;;;;;0.72;0.72;;;17.50;99.90;;;;;;934419;148;27510;-79
2022/10/22 03:26:12;;;;;;;1.00;0.90;;;17.50;99.90;;;;;;934379;149;27340;-79
2022/10/22 03:28:39;;;;;;;0.60;0.60;;;17.50;99.90;;;;;;935770;151;27387;-79
2022/10/22 03:31:05;;;;;;;1.12;0.80;;;17.50;99.90;;;;;;935086;149;27318;-79
2022/10/22 03:33:32;;;;;;;3.30;0.98;;;17.50;99.90;;;;;;919595;151;27379;-78
2022/10/22 03:35:58;;;;;;;1.35;0.78;;;17.50;99.90;;;;;;936334;149;27371;-79
2022/10/22 03:38:25;;;;;;;1.55;0.90;;;17.50;99.90;;;;;;936648;149;27771;-79
2022/10/22 03:40:51;;;;;;;1.42;1.02;;;17.50;99.90;;;;;;935639;151;27267;-79
2022/10/22 03:43:18;;;;;;;2.17;0.80;;;17.50;99.90;;;;;;935671;149;27319;-79
2022/10/22 03:45:45;;;;;;;0.80;0.80;;;17.50;99.90;;;;;;936985;148;27397;-79
2022/10/22 03:48:11;;;;;;;0.72;0.62;;;17.50;99.90;;;;;;936833;151;27337;-79
2022/10/22 03:50:38;;;;;;;0.68;0.68;;;17.50;99.90;;;;;;937453;151;27322;-79
2022/10/22 03:53:06;;;;;;;2.58;0.80;;;17.50;99.90;;;;;;934182;149;27443;-79
2022/10/22 03:55:31;;;;;;;0.88;0.80;;;17.50;99.90;;;;;;934637;148;27510;-79
2022/10/22 03:57:58;;;;;;;3.55;0.65;;;17.50;99.90;;;;;;934485;151;27323;-79
2022/10/22 04:00:24;;;;;;;0.82;0.70;;;17.50;99.90;;;;;;935172;151;27365;-79
2022/10/22 04:02:51;;;;;;;1.35;0.95;;;17.50;99.90;;;;;;919608;154;28324;-79
2022/10/22 04:05:17;;;;;;;1.15;0.98;;;17.60;99.90;;;;;;919419;154;27400;-80
2022/10/22 04:07:44;;;;;;;1.00;0.82;;;17.60;99.90;;;;;;934903;151;27309;-79
2022/10/22 04:10:11;;;;;;;1.05;0.70;;;17.60;99.90;;;;;;934784;151;27300;-79
2022/10/22 04:12:37;;;;;;;0.62;0.62;;;17.60;99.90;;;;;;935580;148;27369;-79
2022/10/22 04:15:04;;;;;;;0.78;0.78;;;17.60;99.90;;;;;;934599;148;27352;-79
2022/10/22 04:17:33;;;;;;;2.30;0.82;;;17.60;99.90;;;;;;935043;151;27404;-80
2022/10/22 04:20:00;;;;;;;1.37;0.90;;;17.60;99.90;;;;;;938371;151;27301;-79
2022/10/22 04:22:26;;;;;;;1.60;1.20;;;17.60;99.90;;;;;;935981;151;27392;-79
2022/10/22 04:24:53;;;;;;;3.70;1.20;;;17.60;99.90;;;;;;937411;148;27863;-79
2022/10/22 04:27:20;;;;;;;0.95;0.60;;;17.60;99.90;;;;;;936442;148;27362;-79
2022/10/22 04:29:46;;;;;;;1.98;1.35;;;17.60;99.90;;;;;;933948;148;27386;-80
2022/10/22 04:32:13;;;;;;;0.90;0.90;;;17.60;99.90;;;;;;933510;148;27356;-80
2022/10/22 04:34:39;;;;;;;1.27;1.07;;;17.60;99.90;;;;;;934412;148;27482;-79
2022/10/22 04:37:06;;;;;;;1.02;0.70;;;17.60;99.90;;;;;;933511;148;27317;-79
2022/10/22 04:39:33;;;;;;;1.50;1.12;;;17.60;99.90;;;;;;933032;148;27390;-80
2022/10/22 04:41:59;;;;;;;1.37;0.70;;;17.60;99.90;;;;;;934550;148;27300;-79
2022/10/22 04:44:26;;;;;;;1.40;0.90;;;17.60;99.90;;;;;;935079;148;27378;-79
2022/10/22 04:46:52;;;;;;;1.00;0.90;;;17.60;99.90;;;;;;935245;148;27300;-79
2022/10/22 04:49:19;;;;;;;1.05;0.90;;;17.60;99.90;;;;;;934652;148;27330;-79
2022/10/22 04:51:45;;;;;;;3.42;1.00;;;17.50;99.90;;;;;;934971;148;27371;-79
2022/10/22 04:54:12;;;;;;;1.12;1.00;;;17.50;99.90;;;;;;937021;148;27356;-79
2022/10/22 04:56:39;;;;;;;1.55;0.98;;;17.50;99.90;;;;;;932585;148;27315;-79
2022/10/22 04:59:05;;;;;;;0.80;0.80;;;17.50;99.90;;;;;;935102;148;27315;-79
2022/10/22 05:01:32;;;;;;;2.83;0.90;;;17.50;99.90;;;;;;935250;148;27342;-79
2022/10/22 05:03:58;;;;;;;0.90;0.80;;;17.40;99.90;;;;;;933450;148;27385;-79
2022/10/22 05:06:25;;;;;;;0.80;0.78;;;17.40;99.90;;;;;;932680;148;27361;-79
2022/10/22 05:08:52;;;;;;;1.62;0.93;;;17.40;99.90;;;;;;931843;149;27371;-79
2022/10/22 05:11:18;;;;;;;1.80;1.00;;;17.40;99.90;;;;;;933733;149;27713;-79
2022/10/22 05:13:45;;;;;;;1.10;1.00;;;17.30;99.90;;;;;;933594;149;27319;-80
2022/10/22 05:16:11;;;;;;;1.10;1.00;;;17.30;99.90;;;;;;932568;149;27334;-79
2022/10/22 05:30:55;;;;;;;0.80;0.78;;;17.20;99.90;;;;;;931995;149;27389;-79
2022/10/22 05:33:21;;;;;;;1.00;0.70;;;17.20;99.90;;;;;;950955;146;27375;-79
2022/10/22 05:35:48;;;;;;;0.85;0.85;;;17.20;99.90;;;;;;950383;146;27375;-79
2022/10/22 05:38:14;;;;;;;1.00;0.95;;;17.20;99.90;;;;;;950183;146;27305;-80
2022/10/22 05:40:41;;;;;;;0.53;0.53;;;17.20;99.90;;;;;;952790;146;27281;-79
2022/10/22 05:43:07;;;;;;;3.17;0.82;;;17.20;99.90;;;;;;951986;146;27440;-79
2022/10/22 05:45:37;;;;;;;0.82;0.82;;;17.20;99.90;;;;;;952304;146;27342;-79
2022/10/22 05:48:03;;;;;;;1.17;0.90;;;17.20;99.90;;;;;;950724;146;27496;-79
2022/10/22 05:50:30;;;;;;;2.33;0.85;;;17.20;99.90;;;;;;954419;146;27336;-80
2022/10/22 05:52:57;;;;;;;3.67;0.90;;;17.20;99.90;;;;;;951012;146;27305;-79
2022/10/22 05:55:23;;;;;;;1.22;0.80;;;17.20;99.90;;;;;;941719;150;27283;-80
2022/10/22 05:57:50;;;;;;;1.65;0.70;;;17.20;99.90;;;;;;940820;148;27320;-79
2022/10/22 06:00:16;;;;;;;1.22;1.02;;;17.20;99.90;;;;;;942336;150;27445;-80
2022/10/22 06:02:43;;;;;;;1.45;0.78;;;17.20;99.90;;;;;;941478;150;27437;-80
2022/10/22 06:05:09;;;;;;;0.80;0.70;;;17.20;99.90;;;;;;940458;150;27348;-80
2022/10/22 06:07:36;;;;;;;1.10;1.00;;;17.20;99.90;;;;;;940946;150;27412;-80
2022/10/22 06:10:03;;;;;;;2.27;1.02;;;17.30;99.90;;;;;;943151;150;27316;-80
2022/10/22 06:12:29;;;;;;;1.07;0.95;;;17.30;99.90;;;;;;942877;148;27451;-80
2022/10/22 06:14:56;;;;;;;0.90;0.80;;;17.30;99.90;;;;;;941405;150;27484;-80
2022/10/22 06:17:22;;;;;;;0.80;0.78;;;17.30;99.90;;;;;;941574;150;27290;-80
2022/10/22 06:19:49;;;;;;;0.78;0.78;;;17.30;99.90;;;;;;943574;149;27305;-80
2022/10/22 06:22:16;;;;;;;2.22;0.93;;;17.30;99.90;;;;;;935350;149;27315;-80
2022/10/22 06:24:42;;;;;;;1.32;1.22;;;17.30;99.90;;;;;;951421;146;27355;-80
2022/10/22 06:27:09;;;;;;;1.05;0.95;;;17.30;99.90;;;;;;950115;146;27466;-80
2022/10/22 06:29:35;;;;;;;1.90;0.82;;;17.30;99.90;;;;;;951821;146;27384;-80
2022/10/22 06:32:02;;;;;;;1.95;1.00;;;17.30;99.90;;;;;;935048;148;27436;-81
2022/10/22 06:34:29;;;;;;;1.30;1.20;;;17.40;99.90;;;;;;932402;148;27320;-80
2022/10/22 06:36:55;;;;;;;1.40;1.07;;;17.40;99.90;;;;;;934387;148;27443;-80
2022/10/22 06:39:22;;;;;;;1.15;0.85;;;17.40;99.90;;;;;;934823;148;27338;-80
2022/10/22 06:41:48;;;;;;;2.27;0.80;;;17.40;99.90;;;;;;933218;148;28198;-81
2022/10/22 06:44:15;;;;;;;1.85;1.00;;;17.40;99.90;;;;;;934193;148;27426;-81
2022/10/22 06:46:42;;;;;;;0.75;0.70;;;17.40;99.90;;;;;;935221;148;27352;-81
2022/10/22 06:49:08;;;;;;;1.15;0.80;;;17.40;99.90;;;;;;935200;148;27363;-81
2022/10/22 06:51:35;;;;;;;0.60;0.60;;;17.50;99.90;;;;;;935786;148;27410;-80
2022/10/22 06:54:01;;;;;;;1.72;0.88;;;17.50;99.90;;;;;;936140;148;27374;-81
2022/10/22 06:56:28;;;;;;;2.20;0.90;;;17.50;99.90;;;;;;935362;148;27345;-81
2022/10/22 06:58:55;;;;;;;2.98;0.85;;;17.50;99.90;;;;;;935396;148;27368;-81
2022/10/22 07:01:24;;;;;;;1.65;0.80;;;17.50;99.90;;;;;;935047;148;27339;-81
2022/10/22 07:03:50;;;;;;;0.75;0.65;;;17.60;99.90;;;;;;935196;148;27375;-81
2022/10/22 07:06:17;;;;;;;0.60;0.60;;;17.50;99.90;;;;;;932321;148;27775;-80
2022/10/22 07:08:43;;;;;;;1.95;0.80;;;17.50;99.90;;;;;;934138;148;27452;-81
2022/10/22 07:11:25;;;;;;;3.30;1.17;;;17.50;99.90;;;;;;931772;148;27373;-80
2022/10/22 07:13:52;;;;;;;0.80;0.80;;;17.60;99.90;;;;;;934668;148;27343;-81
2022/10/22 07:16:18;;;;;;;2.33;0.93;;;17.70;99.90;;;;;;932872;148;27371;-80
2022/10/22 07:18:45;;;;;;;0.70;0.70;;;17.90;99.90;;;;;;934389;148;27378;-82
2022/10/22 07:21:12;;;;;;;2.00;0.60;;;18.20;99.90;;;;;;934621;148;27475;-81
2022/10/22 07:23:38;;;;;;;5.17;1.60;;;18.60;99.90;;;;;;935317;148;27480;-81
2022/10/22 07:26:06;;;;;;;3.30;1.82;;;19.00;99.90;;;;;;935736;148;27307;-81
2022/10/22 07:28:32;;;;;;;1.00;0.90;;;19.50;99.90;;;;;;934622;148;27306;-81
2022/10/22 07:30:58;;;;;;;1.82;0.90;;;20.00;99.90;;;;;;933467;148;27397;-82
2022/10/22 07:33:25;;;;;;;8.25;5.65;;;20.50;99.90;;;;;;936066;148;27419;-81
2022/10/22 07:35:51;;;;;;;1.82;1.55;;;21.10;99.90;;;;;;936091;148;27378;-81
2022/10/22 07:38:18;;;;;;;1.62;1.52;;;21.60;99.90;;;;;;935337;151;27662;-81
2022/10/22 07:40:44;;;;;;;3.05;1.90;;;22.20;99.90;;;;;;934760;151;27424;-81
2022/10/22 07:43:11;;;;;;;3.35;3.05;;;22.80;99.90;;;;;;934213;151;27460;-80
2022/10/22 07:45:37;;;;;;;1.90;1.65;;;23.30;99.90;;;;;;936088;150;27473;-81
2022/10/22 07:48:04;;;;;;;1.80;1.00;;;23.90;99.90;;;;;;935270;148;27408;-81
2022/10/22 07:50:31;;;;;;;3.72;1.55;;;24.30;99.90;;;;;;934842;148;27275;-81
2022/10/22 07:52:57;;;;;;;3.33;1.15;;;24.90;99.90;;;;;;934642;151;27347;-81
2022/10/22 07:55:24;;;;;;;6.15;1.77;;;25.30;99.00;;;;;;935313;148;27393;-81
2022/10/22 07:57:50;;;;;;;12.55;3.83;;;25.80;97.50;;;;;;935124;148;27451;-81
2022/10/22 08:00:17;;;;;;;3.72;1.07;;;26.30;96.10;;;;;;934776;151;27378;-81
2022/10/22 08:02:44;;;;;;;4.20;1.42;;;26.80;94.20;;;;;;936121;151;27425;-81
2022/10/22 08:05:12;;;;;;;3.00;1.05;;;27.20;92.60;;;;;;935228;148;27279;-81
2022/10/22 08:07:37;;;;;;;1.05;0.62;;;27.60;90.40;;;;;;935419;148;28107;-81
2022/10/22 08:10:03;;;;;;;2.65;0.90;;;27.90;87.30;;;;;;935438;151;27884;-81
2022/10/22 08:12:30;;;;;;;3.60;1.70;;;28.20;85.60;;;;;;929345;152;27458;-82
2022/10/22 08:14:57;;;;;;;1.57;1.07;;;28.40;83.10;;;;;;928780;150;27367;-81
2022/10/22 08:17:23;;;;;;;2.02;0.93;;;28.60;81.50;;;;;;929265;150;27259;-81
2022/10/22 08:19:50;;;;;;;0.62;0.62;;;28.80;80.50;;;;;;928670;152;27333;-81
2022/10/22 08:22:16;;;;;;;0.90;0.72;;;29.00;79.60;;;;;;927643;152;27381;-81
2022/10/22 08:24:43;;;;;;;0.68;0.68;;;29.20;78.00;;;;;;928142;152;27480;-81
2022/10/22 08:27:09;;;;;;;1.17;0.30;;;29.40;77.10;;;;;;927388;152;27700;-81
2022/10/22 08:29:36;;;;;;;0.47;0.47;;;29.60;76.10;;;;;;927917;152;27370;-81
2022/10/22 08:32:03;;;;;;;1.00;0.90;;;29.70;75.30;;;;;;927783;152;27342;-81
2022/10/22 08:34:29;;;;;;;1.85;1.15;;;29.90;74.60;;;;;;928192;152;27406;-81
2022/10/22 08:36:56;;;;;;;1.00;0.70;;;30.20;73.80;;;;;;929801;150;27464;-80
2022/10/22 08:39:22;;;;;;;0.95;0.60;;;30.40;72.80;;;;;;929627;152;27352;-81
2022/10/22 08:41:49;;;;;;;0.90;0.60;;;30.60;71.00;;;;;;928008;152;27436;-81
2022/10/22 08:44:16;;;;;;;0.95;0.50;;;30.60;69.20;;;;;;929157;150;27499;-81
2022/10/22 08:46:45;;;;;;;2.08;0.60;;;30.80;69.40;;;;;;925286;152;27455;-81
2022/10/22 08:49:24;;;;;;;0.47;0.47;;;30.90;68.90;;;;;;927093;152;27431;-81
2022/10/22 08:51:50;;;;;;;1.12;0.50;;;31.00;68.50;;;;;;927006;152;27341;-79
2022/10/22 08:54:51;;;;;;;1.62;0.50;;;31.10;66.60;;;;;;929747;152;27342;-78
2022/10/22 08:57:44;;;;;;;0.53;0.30;;;31.20;66.50;;;;;;928189;152;27370;-80
2022/10/22 09:00:11;;;;;;;1.70;0.40;;;31.10;66.60;;;;;;918466;151;26276;-80
2022/10/22 09:02:52;;;;;;;0.40;0.40;;;31.00;65.00;;;;;;934533;151;27319;-80
2022/10/22 09:05:19;;;;;;;0.35;0.28;;;30.80;64.20;;;;;;934546;148;27358;-80
2022/10/22 09:07:49;;;;;;;2.25;0.30;;;30.70;63.90;;;;;;934715;150;27439;-80
2022/10/22 09:10:12;;;;;;;3.00;0.60;;;30.50;63.30;;;;;;935485;148;27365;-79
2022/10/22 09:12:39;;;;;;;1.50;0.70;;;30.30;63.00;;;;;;934443;151;27310;-80
2022/10/22 09:15:05;;;;;;;0.85;0.25;;;30.00;63.80;;;;;;935037;148;27331;-80
2022/10/22 09:17:38;;;;;;;0.20;0.20;;;29.90;64.10;;;;;;932556;151;27358;-80
2022/10/22 09:20:16;;;;;;;0.65;0.42;;;29.80;63.60;;;;;;934963;151;27465;-80
2022/10/22 09:22:46;;;;;;;0.50;0.30;;;29.70;64.00;;;;;;934200;151;27304;-80
2022/10/22 09:25:28;;;;;;;0.40;0.40;;;29.60;63.80;;;;;;935597;151;27324;-80
2022/10/22 09:27:57;;;;;;;1.17;0.53;;;29.40;63.90;;;;;;936244;151;27481;-80
2022/10/22 09:30:21;;;;;;;0.57;0.33;;;29.30;64.30;;;;;;935451;151;27359;-81
2022/10/22 09:32:47;;;;;;;1.40;0.50;;;29.10;63.90;;;;;;936106;151;27330;-80
2022/10/22 09:35:14;;;;;;;0.33;0.30;;;28.90;63.90;;;;;;933880;148;27401;-80
2022/10/22 09:37:49;;;;;;;1.60;0.40;;;28.80;63.50;;;;;;934999;151;27327;-81
2022/10/22 09:40:16;;;;;;;1.42;0.50;;;28.70;63.40;;;;;;935670;151;27420;-80
2022/10/22 09:42:42;;;;;;;1.80;0.40;;;28.50;63.20;;;;;;935530;151;27427;-80
2022/10/22 09:45:18;;;;;;;0.25;0.25;;;28.30;63.40;;;;;;935211;149;27478;-80
2022/10/22 09:47:45;;;;;;;1.27;0.50;;;28.10;63.30;;;;;;930967;149;29637;-80
2022/10/22 09:50:39;;;;;;;0.55;0.40;;;27.90;63.60;;;;;;936732;151;27254;-80
2022/10/22 09:53:17;;;;;;;1.52;0.40;;;27.70;63.40;;;;;;935263;149;27428;-80
2022/10/22 09:55:44;;;;;;;1.15;0.70;;;27.50;63.40;;;;;;934870;148;27343;-80
2022/10/22 09:58:10;;;;;;;1.65;0.42;;;27.30;63.60;;;;;;934616;148;27443;-80
2022/10/22 10:00:37;;;;;;;1.45;0.50;;;27.10;63.60;;;;;;935360;151;27480;-80
2022/10/22 10:03:03;;;;;;;0.60;0.40;;;26.90;63.80;;;;;;919013;151;27336;-80
2022/10/22 10:05:30;;;;;;;0.80;0.40;;;26.70;63.80;;;;;;920254;151;27324;-80
2022/10/22 10:07:57;;;;;;;1.95;0.62;;;26.50;63.50;;;;;;935831;151;27275;-80
2022/10/22 10:10:29;;;;;;;1.80;0.60;;;26.30;63.50;;;;;;935221;151;27393;-80
2022/10/22 10:12:55;;;;;;;3.47;0.70;;;26.20;63.80;;;;;;934455;151;27366;-80
2022/10/22 10:15:22;;;;;;;1.77;0.85;;;26.00;63.50;;;;;;935818;149;27308;-80
2022/10/22 10:18:09;;;;;;;0.75;0.53;;;25.80;63.80;;;;;;935013;149;27293;-80
2022/10/22 10:20:39;;;;;;;1.17;0.55;;;25.60;63.40;;;;;;934056;149;27315;-79
2022/10/22 10:23:11;;;;;;;1.10;0.40;;;25.40;64.00;;;;;;934503;151;27365;-80
2022/10/22 10:25:40;;;;;;;0.50;0.40;;;25.20;64.20;;;;;;935536;148;27328;-79
2022/10/22 10:28:34;;;;;;;1.27;0.37;;;24.90;64.50;;;;;;936088;151;27334;-79
2022/10/22 10:31:03;;;;;;;1.65;0.30;;;24.80;65.10;;;;;;934829;151;27345;-79
2022/10/22 10:33:33;;;;;;;1.00;0.33;;;24.60;65.90;;;;;;933225;149;27375;-80
2022/10/22 10:36:14;;;;;;;0.70;0.70;;;24.40;66.10;;;;;;932759;149;27494;-79
2022/10/22 10:39:07;;;;;;;0.78;0.65;;;24.30;66.40;;;;;;935391;149;27354;-79
2022/10/22 10:41:52;;;;;;;2.37;0.70;;;24.20;66.70;;;;;;934922;148;27315;-79
2022/10/22 10:44:22;;;;;;;2.37;0.60;;;24.10;67.10;;;;;;936255;149;27489;-80
2022/10/22 10:46:51;;;;;;;0.78;0.60;;;24.00;66.70;;;;;;933761;151;27422;-80
2022/10/22 10:49:24;;;;;;;0.72;0.40;;;23.90;67.50;;;;;;931935;151;27481;-80
2022/10/22 10:51:50;;;;;;;1.75;0.70;;;23.80;67.60;;;;;;933460;151;27327;-79
2022/10/22 10:54:23;;;;;;;1.87;0.88;;;23.80;68.00;;;;;;935053;151;27327;-80
2022/10/22 10:56:52;;;;;;;1.62;0.70;;;23.70;68.20;;;;;;935528;151;27464;-80
2022/10/22 10:59:19;;;;;;;3.33;0.70;;;23.70;68.40;;;;;;937761;148;27342;-80
2022/10/22 11:02:04;;;;;;;1.60;0.65;;;23.60;68.40;;;;;;937138;149;27320;-80
2022/10/22 11:04:49;;;;;;;2.02;0.70;;;23.60;68.60;;;;;;935524;148;27358;-80
2022/10/22 11:07:18;;;;;;;1.45;0.70;;;23.60;68.80;;;;;;934091;151;27423;-80
2022/10/22 11:09:47;;;;;;;1.05;0.70;;;23.50;68.90;;;;;;934259;151;27322;-80
2022/10/22 11:12:17;;;;;;;4.08;0.70;;;23.50;69.10;;;;;;933688;151;28067;-80
2022/10/22 11:14:49;;;;;;;0.93;0.62;;;23.40;69.10;;;;;;933542;151;27706;-80
2022/10/22 11:17:15;;;;;;;1.50;0.70;;;23.40;69.10;;;;;;934773;149;27410;-80
2022/10/22 11:19:47;;;;;;;2.50;0.98;;;23.30;69.10;;;;;;936609;149;27472;-80
2022/10/22 11:22:29;;;;;;;1.87;0.62;;;23.30;69.30;;;;;;934649;149;27842;-80
2022/10/22 11:25:10;;;;;;;0.45;0.33;;;23.20;70.00;;;;;;928550;149;27379;-79
2022/10/22 11:27:40;;;;;;;0.53;0.53;;;23.20;70.00;;;;;;935241;149;27291;-79
2022/10/22 11:30:12;;;;;;;0.90;0.80;;;23.10;69.90;;;;;;935203;151;27364;-79
2022/10/22 11:32:39;;;;;;;1.42;0.90;;;23.10;69.70;;;;;;937547;149;27401;-79
2022/10/22 11:35:06;;;;;;;1.82;0.80;;;23.00;69.90;;;;;;933591;151;27423;-79
2022/10/22 11:37:37;;;;;;;0.75;0.62;;;23.00;69.90;;;;;;933931;149;27311;-79
2022/10/22 11:40:01;;;;;;;2.33;0.95;;;22.90;70.00;;;;;;932673;149;27453;-79
2022/10/22 11:42:31;;;;;;;0.85;0.85;;;22.80;70.10;;;;;;933356;149;27460;-79
2022/10/22 11:45:07;;;;;;;1.65;0.70;;;22.70;70.20;;;;;;931760;149;27429;-80
2022/10/22 11:47:33;;;;;;;4.50;0.93;;;22.70;70.80;;;;;;933439;149;27281;-79
2022/10/22 11:50:03;;;;;;;1.20;0.82;;;22.70;71.00;;;;;;933973;149;27323;-79
2022/10/22 11:52:32;;;;;;;1.07;0.70;;;22.70;71.20;;;;;;918653;149;27465;-79
2022/10/22 11:55:02;;;;;;;2.05;0.98;;;22.80;71.30;;;;;;933747;148;27375;-80
2022/10/22 11:57:35;;;;;;;3.42;0.57;;;22.90;71.60;;;;;;935475;149;27397;-79
2022/10/22 12:00:01;;;;;;;2.12;0.80;;;22.90;71.10;;;;;;931868;149;27375;-80
2022/10/22 12:02:27;;;;;;;3.12;0.65;;;23.00;70.90;;;;;;932713;149;27310;-80
2022/10/22 12:05:21;;;;;;;0.42;0.42;;;23.00;70.50;;;;;;935664;149;27382;-80
2022/10/22 12:07:55;;;;;;;0.95;0.55;;;23.00;70.00;;;;;;934836;149;27472;-79
2022/10/22 12:10:26;;;;;;;1.17;0.65;;;23.10;69.80;;;;;;931815;149;27359;-80
2022/10/22 12:13:01;;;;;;;1.95;0.60;;;23.00;69.70;;;;;;932263;149;27441;-80
2022/10/22 12:15:28;;;;;;;1.02;0.70;;;23.00;70.00;;;;;;931582;149;27388;-80
2022/10/22 12:18:00;;;;;;;2.10;1.20;;;22.90;70.30;;;;;;933626;149;27376;-79
2022/10/22 12:20:27;;;;;;;2.02;0.80;;;22.90;70.20;;;;;;933372;149;28601;-79
2022/10/22 12:22:53;;;;;;;2.35;1.00;;;22.80;70.20;;;;;;934350;149;27361;-80
2022/10/22 12:25:23;;;;;;;0.90;0.80;;;22.80;70.40;;;;;;932688;149;27363;-80
2022/10/22 12:27:50;;;;;;;2.80;0.80;;;22.80;70.70;;;;;;935531;149;27311;-80
2022/10/22 12:30:24;;;;;;;2.05;0.82;;;22.80;70.70;;;;;;932840;149;27391;-79
2022/10/22 12:32:52;;;;;;;0.95;0.80;;;22.80;70.30;;;;;;918556;150;27340;-79
2022/10/22 12:35:17;;;;;;;2.33;0.95;;;22.80;70.30;;;;;;934903;148;27363;-80
2022/10/22 12:37:44;;;;;;;2.17;1.02;;;22.70;70.40;;;;;;934962;151;27418;-80
2022/10/22 12:40:20;;;;;;;1.00;0.90;;;22.70;70.30;;;;;;934852;151;27462;-80
2022/10/22 12:42:49;;;;;;;2.77;1.10;;;22.70;70.30;;;;;;929152;154;27461;-80
2022/10/22 12:45:15;;;;;;;2.45;1.20;;;22.70;70.30;;;;;;935025;151;27421;-80
2022/10/22 12:47:48;;;;;;;1.85;0.70;;;22.70;70.70;;;;;;936985;148;27335;-79
2022/10/22 12:50:17;;;;;;;2.08;0.98;;;22.70;71.00;;;;;;935709;151;27366;-80
2022/10/22 12:52:44;;;;;;;1.70;0.82;;;22.70;71.10;;;;;;934484;151;27421;-79
2022/10/22 12:55:16;;;;;;;1.05;0.60;;;22.80;71.00;;;;;;936110;149;27325;-80
2022/10/22 12:57:43;;;;;;;1.05;0.68;;;22.80;70.90;;;;;;919403;154;27734;-79
2022/10/22 13:00:18;;;;;;;0.90;0.70;;;22.90;70.70;;;;;;935093;148;27434;-79
2022/10/22 13:02:45;;;;;;;1.95;0.80;;;22.90;70.50;;;;;;935128;148;27444;-79
2022/10/22 13:05:27;;;;;;;0.95;0.70;;;23.00;70.80;;;;;;935893;148;28383;-80
2022/10/22 13:07:53;;;;;;;1.57;0.90;;;23.10;70.90;;;;;;935000;149;27443;-79